Plymouth, NH

2:07 AM EDT on July 29, 2015 (GMT -0400)
Plymouth | | Change Station
CLOSE
Current Station
Airport
Location: Plymouth,
Elevation: 505 ft
Nearby Weather Stations

Elev 505 ft 43.78 °N, 71.76 °W | Updated 12 minutes ago

Mist
Mist
62 °F
Feels Like 62 °F
N
0
Wind Variable Wind from North

Today
High -- | Low -- °F
--% Chance of Precip.
Yesterday
High -- | Low -- °F
Precip. -- in
5:32 AM 8:14 PM
Waxing Gibbous, 94% visible
Pressure 29.98 in
Visibility 1.2 miles
Clouds
Dew Point 62 °F
Humidity 100%
Rainfall 0.00 in
Snow Depth Not available.
UV Not available.
Pollen 5.20 out of 12
Air Quality Not available.
Flu Activity Not available.
METAR K1P1 290555Z AUTO 00000KT 1 1/4SM BR VV007 17/17 A2998 RMK AO2 T01650165 10246 20165

More Conditions Fewer Conditions

Pressure 29.98 in
Visibility 1.2 miles
Clouds
Dew Point 62 °F
Humidity 100%
Rainfall 0.00 in
Snow Depth Not available.
UV Not available.
Pollen 5.20 out of 12
Air Quality Not available.
Flu Activity Not available.
METAR K1P1 290555Z AUTO 00000KT 1 1/4SM BR VV007 17/17 A2998 RMK AO2 T01650165 10246 20165

More Conditions Fewer Conditions

10-Day Weather Forecast

×

Almanac

Astronomy

Jul. 29, 2015 Rise Set
Actual Time
Civil Twilight
Nautical Twilight
Astronomical Twilight
Moon
Length of Visible Light
Length of Day
Tomorrow will be .
, % of the Moon is Illuminated

Today's Extremes

State Highs State Lows

Community

WunderPhotos

Upload Photos

1,842,060 photos uploaded!

WunderBlogs® & News

Nearby

Air Quality

  Air Quality AQ Index Pollutant
Not available.

Snow Depth

Station Depth Elevation

Earthquake Activity

City Distance Mag. Time & Date
Minimum magnitude displayed is 2.5.

Coastal Water Temperatures

Place Temperature

Stations

Nearby Weather Stations

Station Location Temp. Windchill Dew Point Humidity Wind Precip. Elev Updated Type